Terminal Aerodrome Forecast
Issued by NWS

Home | Current Version | Previous Version | Text Only | Print | Product List | Glossary Off
Versions: 1 2 3 4 5 6 7 8 9 10 11 12 13 14 15 16 17 18 19 20 21 22 23 24 25

000
FTUS43 KBIS 281025 AAD
TAFDIK
TAF AMD
KDIK 281025Z 2810/2906 06006KT 1/2SM FG VCSH OVC002
      TEMPO 2810/2812 1SM -SHRA BR OVC005
     FM281500 10008KT P6SM BKN035 OVC080
     FM282300 10007KT P6SM SCT040=

USA.gov is the U.S. government's official web portal to all federal, state and local government web resources and services.